Time;durP1;ratioP1;P1;durP2;ratioP2;P2;SDS_P1;SDS_P2;PMS_P1;PMS_P2;Temp;Humidity;BMP_temperature;BMP_pressure;BME280_temperature;BME280_humidity;BME280_pressure;Samples;Min_cycle;Max_cycle;Signal;HPM_P1;HPM_P2
2022/08/23 00:00:16;;;;;;;4.63;2.17;;;;;;;15.52;100.00;100854.47;5005203;28;20578;-77
2022/08/23 00:02:42;;;;;;;2.90;2.10;;;;;;;15.48;100.00;100858.16;5005620;28;20215;-77
2022/08/23 00:05:10;;;;;;;2.57;2.33;;;;;;;15.52;100.00;100857.09;5002696;28;20200;-78
2022/08/23 00:07:37;;;;;;;4.83;2.30;;;;;;;15.49;100.00;100849.31;5002431;28;20201;-77
2022/08/23 00:10:04;;;;;;;3.77;2.30;;;;;;;15.52;100.00;100845.72;5007210;28;20212;-78
2022/08/23 00:12:30;;;;;;;3.03;2.37;;;;;;;15.51;100.00;100841.38;4987640;28;20209;-78
2022/08/23 00:14:57;;;;;;;2.83;2.53;;;;;;;15.51;100.00;100839.63;5005080;28;20224;-77
2022/08/23 00:17:23;;;;;;;5.27;2.27;;;;;;;15.51;100.00;100837.00;5003408;28;20200;-77
2022/08/23 00:19:49;;;;;;;3.87;2.20;;;;;;;15.58;100.00;100834.94;5006127;28;20200;-77
2022/08/23 00:22:17;;;;;;;2.40;2.20;;;;;;;15.61;100.00;100831.34;5006473;28;20212;-77
2022/08/23 00:24:44;;;;;;;3.10;2.50;;;;;;;15.58;100.00;100829.69;5006427;28;20284;-77
2022/08/23 00:27:12;;;;;;;2.80;2.30;;;;;;;15.56;100.00;100834.16;5001407;28;20237;-78
2022/08/23 00:29:40;;;;;;;2.90;2.60;;;;;;;15.56;100.00;100833.31;4991970;28;20259;-77
2022/08/23 00:32:10;;;;;;;3.37;2.70;;;;;;;15.56;100.00;100825.44;5003925;28;20208;-78
2022/08/23 00:34:38;;;;;;;3.90;2.77;;;;;;;15.60;100.00;100821.72;4986648;28;20242;-78
2022/08/23 00:37:07;;;;;;;3.43;2.77;;;;;;;15.61;100.00;100831.34;4984894;28;20193;-77
2022/08/23 00:39:36;;;;;;;3.10;2.80;;;;;;;15.61;100.00;100826.94;5004698;28;20221;-77
2022/08/23 00:47:38;;;;;;;4.00;2.60;;;;;;;15.66;100.00;100826.75;4986340;28;20743;-78
2022/08/23 00:47:40;;;;;;;4.77;3.80;;;;;;;15.66;100.00;100835.47;5007494;28;20232;-78
2022/08/23 00:50:14;;;;;;;4.07;3.60;;;;;;;15.68;100.00;100838.88;5000577;28;20291;-77
2022/08/23 00:52:47;;;;;;;6.73;4.27;;;;;;;15.69;100.00;100840.59;4984349;28;20548;-77
2022/08/23 00:55:16;;;;;;;6.20;4.57;;;;;;;15.69;100.00;100839.75;5006608;28;20443;-77
2022/08/23 00:57:43;;;;;;;4.83;3.73;;;;;;;15.72;100.00;100842.22;5007048;28;20235;-77
2022/08/23 01:00:11;;;;;;;4.87;3.77;;;;;;;15.75;100.00;100841.28;4988783;28;20205;-77
2022/08/23 01:02:40;;;;;;;4.83;4.13;;;;;;;15.78;100.00;100847.25;5005167;28;20205;-77
2022/08/23 01:05:08;;;;;;;4.90;4.20;;;;;;;15.81;100.00;100843.63;5004790;28;20205;-77
2022/08/23 01:07:45;;;;;;;5.07;3.73;;;;;;;15.80;100.00;100844.56;5000312;28;20242;-77
2022/08/23 01:10:20;;;;;;;4.83;3.80;;;;;;;15.80;100.00;100844.56;5000662;28;20204;-78
2022/08/23 01:12:52;;;;;;;6.13;3.80;;;;;;;15.82;100.00;100845.34;5001256;28;20218;-77
2022/08/23 01:15:26;;;;;;;6.40;3.90;;;;;;;15.87;100.00;100843.38;4982080;28;20225;-77
2022/08/23 01:17:56;;;;;;;4.30;3.77;;;;;;;15.89;100.00;100831.84;5002170;28;20855;-77
2022/08/23 01:20:25;;;;;;;5.17;4.40;;;;;;;15.87;100.00;100833.69;5003763;28;20926;-77
2022/08/23 01:22:58;;;;;;;5.73;4.23;;;;;;;15.88;100.00;100831.91;4984512;28;20288;-77
2022/08/23 01:25:30;;;;;;;6.73;4.60;;;;;;;15.90;100.00;100835.34;5003862;28;20211;-77
2022/08/23 01:27:58;;;;;;;5.83;4.33;;;;;;;15.89;100.00;100831.84;4989263;28;20716;-78
2022/08/23 01:30:27;;;;;;;5.00;4.50;;;;;;;15.90;100.00;100830.94;4987498;28;21378;-77
2022/08/23 01:32:57;;;;;;;5.33;4.50;;;;;;;15.91;100.00;100829.16;5008727;28;20291;-77
2022/08/23 01:35:30;;;;;;;5.27;4.20;;;;;;;15.94;100.00;100836.91;5002741;28;20251;-78
2022/08/23 01:37:57;;;;;;;5.87;4.53;;;;;;;15.94;100.00;100829.00;4985623;28;20220;-77
2022/08/23 01:40:23;;;;;;;5.57;4.80;;;;;;;15.95;100.00;100838.59;4985643;28;20201;-78
2022/08/23 01:42:51;;;;;;;5.87;4.87;;;;;;;15.96;100.00;100836.84;5007923;28;20254;-77
2022/08/23 01:45:18;;;;;;;7.17;4.77;;;;;;;15.98;100.00;100848.97;4984917;28;20295;-78
2022/08/23 01:47:44;;;;;;;7.30;5.10;;;;;;;15.99;100.00;100847.19;4985363;28;20220;-78
2022/08/23 01:50:12;;;;;;;8.37;5.63;;;;;;;16.00;100.00;100841.88;5001997;28;20232;-77
2022/08/23 01:52:40;;;;;;;6.50;5.37;;;;;;;16.03;100.00;100835.63;5006297;28;20204;-77
2022/08/23 01:55:07;;;;;;;9.10;5.97;;;;;;;16.03;100.00;100836.47;5005255;28;20235;-77
2022/08/23 01:57:34;;;;;;;7.57;5.97;;;;;;;16.04;100.00;100834.69;5002971;28;20197;-77
2022/08/23 02:00:07;;;;;;;6.13;5.17;;;;;;;16.04;100.00;100843.47;5001084;28;20196;-77
2022/08/23 02:02:39;;;;;;;6.60;5.57;;;;;;;16.06;100.00;100838.13;5002205;28;20211;-77
2022/08/23 02:05:07;;;;;;;7.20;5.63;;;;;;;16.05;100.00;100844.31;4980267;28;20209;-77
2022/08/23 02:07:34;;;;;;;8.40;6.10;;;;;;;16.05;100.00;100850.41;5001830;28;20254;-77
2022/08/23 02:10:01;;;;;;;7.60;6.40;;;;;;;16.05;100.00;100842.53;4986882;28;20200;-77
2022/08/23 02:12:27;;;;;;;8.23;6.10;;;;;;;16.07;100.00;100843.28;5005042;28;20303;-78
2022/08/23 02:15:06;;;;;;;7.90;6.13;;;;;;;16.09;100.00;100849.38;4985442;28;20220;-77
2022/08/23 02:17:34;;;;;;;8.23;6.27;;;;;;;16.08;100.00;100841.53;5004939;28;20757;-77
2022/08/23 02:20:01;;;;;;;10.10;6.30;;;;;;;16.10;100.00;100844.94;5007485;28;20200;-78
2022/08/23 02:22:28;;;;;;;7.83;6.77;;;;;;;16.12;100.00;100842.25;4995413;28;20291;-77
2022/08/23 02:24:55;;;;;;;9.53;7.20;;;;;;;16.11;100.00;100840.53;4988887;28;20203;-77
2022/08/23 02:27:21;;;;;;;6.60;5.90;;;;;;;16.14;100.00;100840.41;4990330;28;20235;-77
2022/08/23 02:29:48;;;;;;;9.77;6.73;;;;;;;16.14;100.00;100850.91;5008573;28;20970;-77
2022/08/23 02:32:18;;;;;;;11.80;6.43;;;;;;;16.15;100.00;100842.97;5012303;28;20731;-77
2022/08/23 02:34:45;;;;;;;8.57;6.33;;;;;;;16.15;100.00;100850.00;4989493;28;20671;-78
2022/08/23 02:37:14;;;;;;;7.40;6.00;;;;;;;16.15;100.00;100855.28;5001885;28;20501;-77
2022/08/23 02:39:41;;;;;;;7.60;6.10;;;;;;;16.17;100.00;100845.53;4982903;28;20312;-77
2022/08/23 02:42:09;;;;;;;9.30;6.27;;;;;;;16.16;100.00;100847.28;5006497;28;20204;-77
2022/08/23 02:44:38;;;;;;;6.60;5.60;;;;;;;16.18;100.00;100844.59;5005455;28;20235;-77
2022/08/23 02:47:07;;;;;;;9.83;6.50;;;;;;;16.19;100.00;100852.41;5006555;28;20547;-77
2022/08/23 02:49:36;;;;;;;8.40;5.97;;;;;;;16.21;100.00;100858.44;4988808;28;20220;-78
2022/08/23 02:52:05;;;;;;;7.93;5.77;;;;;;;16.22;100.00;100848.81;5005391;28;20208;-77
2022/08/23 02:54:32;;;;;;;6.87;5.83;;;;;;;16.23;100.00;100848.69;5006766;28;20299;-77
2022/08/23 02:56:59;;;;;;;7.27;5.80;;;;;;;16.23;100.00;100858.38;4989788;28;20200;-76
2022/08/23 02:59:25;;;;;;;7.80;5.93;;;;;;;16.23;100.00;100861.84;4989571;28;20228;-78
2022/08/23 03:01:52;;;;;;;7.10;5.90;;;;;;;16.24;100.00;100863.56;4989283;28;20278;-76
2022/08/23 03:04:25;;;;;;;6.60;5.87;;;;;;;16.26;100.00;100866.16;5001858;28;20206;-77
2022/08/23 03:06:53;;;;;;;7.37;6.13;;;;;;;16.24;100.00;100868.84;4988150;28;21080;-76
2022/08/23 03:09:21;;;;;;;9.17;6.17;;;;;;;16.25;100.00;100860.03;4987835;28;20220;-77
2022/08/23 03:11:49;;;;;;;8.13;6.10;;;;;;;16.25;100.00;100862.66;5005876;28;20209;-77
2022/08/23 03:14:17;;;;;;;9.47;6.47;;;;;;;16.25;100.00;100859.16;5004369;28;20224;-77
2022/08/23 03:16:44;;;;;;;8.43;6.50;;;;;;;16.25;100.00;100859.16;5005125;28;20232;-76
2022/08/23 03:19:10;;;;;;;9.43;5.80;;;;;;;16.27;100.00;100862.59;5003042;28;20283;-77
2022/08/23 03:21:37;;;;;;;7.23;5.87;;;;;;;16.28;100.00;100861.66;5003951;28;20208;-77
2022/08/23 03:24:06;;;;;;;6.93;6.10;;;;;;;16.29;100.00;100866.00;5024692;23;20248;-70
2022/08/23 03:26:32;;;;;;;7.27;6.50;;;;;;;16.28;100.00;100859.88;5050846;28;20265;-71
2022/08/23 03:28:58;;;;;;;8.33;5.83;;;;;;;16.26;100.00;100859.09;5027066;28;20231;-71
2022/08/23 03:31:30;;;;;;;9.00;6.17;;;;;;;16.26;100.00;100866.16;5026872;28;20223;-71
2022/08/23 03:34:05;;;;;;;8.33;6.63;;;;;;;16.24;100.00;100858.31;5049065;28;20214;-69
2022/08/23 03:36:31;;;;;;;7.50;6.70;;;;;;;16.23;100.00;100861.00;5047727;28;20211;-71
2022/08/23 03:38:58;;;;;;;6.60;5.70;;;;;;;16.22;100.00;100856.69;5033012;28;20199;-71
2022/08/23 03:41:26;;;;;;;9.63;6.20;;;;;;;16.21;100.00;100860.25;5027689;28;20755;-69
2022/08/23 03:43:53;;;;;;;8.13;6.27;;;;;;;16.20;100.00;100863.78;5027641;28;20250;-71
2022/08/23 03:46:22;;;;;;;8.63;5.90;;;;;;;16.20;100.00;100863.78;5030789;28;20191;-71
2022/08/23 03:48:52;;;;;;;7.47;6.20;;;;;;;16.21;100.00;100868.97;5035796;28;20223;-69
2022/08/23 03:51:20;;;;;;;8.60;6.13;;;;;;;16.20;100.00;100875.19;5033416;28;20211;-72
2022/08/23 03:53:48;;;;;;;9.47;7.30;;;;;;;16.17;100.00;100872.69;5031367;28;20246;-71
2022/08/23 03:56:22;;;;;;;8.13;7.10;;;;;;;16.18;100.00;100882.28;5045894;28;20666;-71
2022/08/23 03:58:51;;;;;;;8.30;6.43;;;;;;;16.15;100.00;100879.78;5056242;28;20302;-71
2022/08/23 04:01:18;;;;;;;8.43;7.10;;;;;;;16.16;100.00;100883.25;5035861;28;20226;-73
2022/08/23 04:03:46;;;;;;;9.77;6.63;;;;;;;16.15;100.00;100879.78;5021661;28;20357;-74
2022/08/23 04:06:12;;;;;;;10.03;6.63;;;;;;;16.17;100.00;100884.97;5027737;28;20307;-73
2022/08/23 04:08:39;;;;;;;8.37;6.73;;;;;;;16.15;100.00;100884.19;5031900;28;20630;-71
2022/08/23 04:11:06;;;;;;;7.90;5.87;;;;;;;16.16;100.00;100889.38;5048096;28;20207;-74
2022/08/23 04:13:36;;;;;;;9.63;6.80;;;;;;;16.17;100.00;100884.97;5028986;28;20779;-69
2022/08/23 04:16:04;;;;;;;8.77;6.50;;;;;;;16.18;100.00;100889.31;5041673;28;20247;-74
2022/08/23 04:18:33;;;;;;;8.47;6.40;;;;;;;16.21;100.00;100886.53;5024933;28;20291;-74
2022/08/23 04:21:04;;;;;;;9.23;6.80;;;;;;;16.23;100.00;100885.53;5023757;28;20199;-74
2022/08/23 04:23:30;;;;;;;9.00;6.23;;;;;;;16.24;100.00;100889.88;5032589;28;20215;-73
2022/08/23 04:25:57;;;;;;;7.83;6.80;;;;;;;16.26;100.00;100889.81;5051252;28;20199;-73
2022/08/23 04:28:24;;;;;;;8.57;7.07;;;;;;;16.25;100.00;100888.97;5031598;28;20199;-72
2022/08/23 04:30:51;;;;;;;11.53;7.27;;;;;;;16.27;100.00;100881.00;5029677;28;20622;-73
2022/08/23 04:33:19;;;;;;;7.80;6.90;;;;;;;16.29;100.00;100889.69;5024863;28;20687;-74
2022/08/23 04:35:46;;;;;;;10.50;7.03;;;;;;;16.31;100.00;100884.34;5028983;28;20298;-71
2022/08/23 04:38:13;;;;;;;8.57;6.93;;;;;;;16.30;100.00;100880.84;5031752;28;20218;-73
2022/08/23 04:43:26;;;;;;;8.70;6.73;;;;;;;16.33;100.00;100893.88;5024259;28;20703;-74
2022/08/23 04:45:52;;;;;;;9.73;7.43;;;;;;;16.34;100.00;100894.72;5029872;28;20204;-73
2022/08/23 04:48:29;;;;;;;9.87;7.27;;;;;;;16.33;100.00;100885.13;5024422;28;20192;-73
2022/08/23 04:50:57;;;;;;;8.50;6.93;;;;;;;16.34;100.00;100889.47;5029395;28;20217;-74
2022/08/23 04:53:24;;;;;;;11.43;7.10;;;;;;;16.31;100.00;100900.16;5024478;28;20658;-74
2022/08/23 04:56:10;;;;;;;7.83;6.80;;;;;;;16.33;100.00;100891.25;5038990;28;20301;-73
2022/08/23 04:58:38;;;;;;;8.13;6.47;;;;;;;16.36;100.00;100890.22;5028151;28;20208;-74
2022/08/23 05:01:07;;;;;;;8.90;6.80;;;;;;;16.36;100.00;100891.09;5029631;28;20672;-73
2022/08/23 05:03:35;;;;;;;9.10;7.70;;;;;;;16.36;100.00;100890.22;5030041;28;20711;-71
2022/08/23 05:06:03;;;;;;;11.23;7.20;;;;;;;16.36;100.00;100891.09;5042140;28;20191;-74
2022/08/23 05:08:36;;;;;;;9.33;7.23;;;;;;;16.37;100.00;100897.22;5037363;28;20304;-74
2022/08/23 05:11:07;;;;;;;9.33;7.07;;;;;;;16.37;100.00;100895.44;5030836;28;20204;-72
2022/08/23 05:13:35;;;;;;;11.53;7.30;;;;;;;16.37;100.00;100894.59;5041195;28;20246;-74
2022/08/23 05:16:04;;;;;;;10.80;7.47;;;;;;;16.37;100.00;100897.22;5028078;28;20316;-73
2022/08/23 05:18:35;;;;;;;9.90;7.13;;;;;;;16.40;100.00;100897.09;5019278;28;20203;-72
2022/08/23 05:21:02;;;;;;;11.43;7.27;;;;;;;16.40;100.00;100894.44;5021804;28;20203;-73
2022/08/23 05:23:29;;;;;;;10.37;7.27;;;;;;;16.42;100.00;100895.22;5026223;28;20281;-74
2022/08/23 05:26:01;;;;;;;10.10;7.40;;;;;;;16.44;100.00;100898.63;5026882;28;20197;-73
2022/08/23 05:28:34;;;;;;;8.07;7.10;;;;;;;16.46;100.00;100899.41;5045622;28;20199;-74
2022/08/23 05:31:04;;;;;;;9.00;7.27;;;;;;;16.46;100.00;100900.28;5045816;28;20200;-71
2022/08/23 05:33:40;;;;;;;7.60;6.60;;;;;;;16.46;100.00;100900.28;5041435;28;20715;-72
2022/08/23 05:36:09;;;;;;;10.10;7.50;;;;;;;16.52;100.00;100895.66;5025440;28;20234;-70
2022/08/23 05:38:36;;;;;;;11.83;7.87;;;;;;;16.54;100.00;100910.44;5028366;28;20199;-73
2022/08/23 05:41:03;;;;;;;9.70;7.40;;;;;;;16.51;100.00;100909.75;5030757;28;20286;-74
2022/08/23 05:43:31;;;;;;;9.63;7.03;;;;;;;16.53;100.00;100916.63;5020224;28;20219;-73
2022/08/23 05:46:01;;;;;;;11.07;7.63;;;;;;;16.56;100.00;100915.66;5030610;28;21010;-73
2022/08/23 05:48:28;;;;;;;9.63;7.07;;;;;;;16.56;100.00;100916.50;5023926;28;20195;-74
2022/08/23 05:51:10;;;;;;;8.73;6.70;;;;;;;16.58;100.00;100924.31;5043722;28;20202;-74
2022/08/23 05:53:36;;;;;;;9.57;7.43;;;;;;;16.60;100.00;100922.47;5023810;28;20229;-72
2022/08/23 05:56:12;;;;;;;9.27;6.93;;;;;;;16.63;100.00;100930.22;5018454;28;20227;-73
2022/08/23 05:58:40;;;;;;;9.57;7.30;;;;;;;16.66;100.00;100925.66;5026211;28;20234;-74
2022/08/23 06:01:07;;;;;;;8.53;6.77;;;;;;;16.72;100.00;100926.31;5040898;28;20206;-73
2022/08/23 06:03:34;;;;;;;12.20;7.97;;;;;;;16.72;100.00;100919.25;5043307;28;20242;-74
2022/08/23 06:06:02;;;;;;;9.60;7.80;;;;;;;16.78;100.00;100915.47;5043200;28;20215;-71
2022/08/23 06:08:30;;;;;;;8.67;7.47;;;;;;;16.83;100.00;100917.03;5028029;28;20235;-74
2022/08/23 06:11:01;;;;;;;10.20;7.60;;;;;;;16.85;100.00;100927.47;5018938;28;20736;-74
2022/08/23 06:13:34;;;;;;;14.63;8.43;;;;;;;16.90;100.00;100920.19;5047663;28;20217;-73
2022/08/23 06:16:00;;;;;;;12.73;8.60;;;;;;;16.92;100.00;100922.75;5026836;28;20211;-74
2022/08/23 06:18:27;;;;;;;11.13;7.73;;;;;;;16.93;100.00;100921.84;5025957;28;20230;-73
2022/08/23 06:21:04;;;;;;;10.33;7.50;;;;;;;16.98;100.00;100925.09;5020612;28;20199;-74
2022/08/23 06:23:42;;;;;;;12.77;8.47;;;;;;;17.03;100.00;100934.50;5024799;28;20215;-73
2022/08/23 06:26:10;;;;;;;10.80;7.40;;;;;;;17.16;100.00;100928.63;5025229;28;20207;-74
2022/08/23 06:28:37;;;;;;;13.27;7.63;;;;;;;17.27;100.00;100931.56;5026029;28;20207;-74
2022/08/23 06:31:03;;;;;;;11.80;7.90;;;;;;;17.32;100.00;100929.56;5030899;28;20200;-74
2022/08/23 06:33:36;;;;;;;9.57;7.70;;;;;;;17.37;100.00;100934.63;5026674;28;20231;-74
2022/08/23 06:36:22;;;;;;;11.53;7.47;;;;;;;17.48;100.00;100936.72;5048762;28;20602;-73
2022/08/23 06:39:03;;;;;;;9.60;7.40;;;;;;;17.56;100.00;100931.91;5051164;28;20207;-74
2022/08/23 06:41:47;;;;;;;10.33;7.20;;;;;;;17.58;100.00;100930.91;5045021;28;20203;-73
2022/08/23 06:44:28;;;;;;;10.20;7.53;;;;;;;17.64;100.00;100927.09;5020472;28;20219;-72
2022/08/23 06:47:14;;;;;;;9.40;6.27;;;;;;;17.72;100.00;100935.47;5026936;28;20222;-74
2022/08/23 06:49:41;;;;;;;9.37;7.17;;;;;;;17.83;100.00;100929.66;5022622;28;20195;-71
2022/08/23 06:52:08;;;;;;;8.53;6.80;;;;;;;17.87;100.00;100933.00;5029772;28;20204;-71
2022/08/23 06:54:58;;;;;;;8.43;6.10;;;;;;;17.93;100.00;100933.56;5030601;28;20199;-74
2022/08/23 06:57:49;;;;;;;6.83;6.13;;;;;;;17.96;100.00;100933.41;5022842;28;20207;-72
2022/08/23 07:00:36;;;;;;;7.73;5.90;;;;;;;18.08;100.00;100931.03;5025002;28;20203;-73
2022/08/23 07:03:11;;;;;;;7.63;5.47;;;;;;;18.06;100.00;100930.28;5028070;28;20634;-74
2022/08/23 07:06:04;;;;;;;8.30;6.07;;;;;;;18.01;100.00;100933.16;5011589;28;20263;-73
2022/08/23 07:08:34;;;;;;;7.73;5.77;;;;;;;18.12;100.00;100940.50;5041838;28;20199;-73
2022/08/23 07:11:02;;;;;;;8.87;6.10;;;;;;;18.14;100.00;100931.56;5024542;28;20592;-73
2022/08/23 07:13:28;;;;;;;6.60;4.90;;;;;;;18.23;100.00;100935.50;5030706;28;20235;-71
2022/08/23 07:15:58;;;;;;;5.87;5.07;;;;;;;18.26;100.00;100937.16;5028106;28;20207;-73
2022/08/23 07:18:25;;;;;;;6.60;5.43;;;;;;;18.35;100.00;100941.94;5030408;28;20208;-73
2022/08/23 07:20:55;;;;;;;7.17;5.50;;;;;;;18.37;100.00;100939.22;5022824;28;20211;-73
2022/08/23 07:23:21;;;;;;;5.67;5.07;;;;;;;18.39;100.00;100945.25;5025592;28;20661;-74
2022/08/23 07:25:48;;;;;;;6.83;5.20;;;;;;;18.34;100.00;100943.69;5042918;28;20241;-72
2022/08/23 07:28:20;;;;;;;6.47;5.10;;;;;;;18.43;100.00;100952.91;5030762;28;20203;-74
2022/08/23 07:30:46;;;;;;;7.40;5.07;;;;;;;18.40;100.00;100945.16;5026190;28;20693;-73
2022/08/23 07:33:14;;;;;;;8.33;5.20;;;;;;;18.40;100.00;100947.81;5027466;28;20250;-72
2022/08/23 07:36:05;;;;;;;5.83;4.60;;;;;;;18.53;100.00;100954.13;5027222;28;20219;-71
2022/08/23 07:38:32;;;;;;;5.10;4.47;;;;;;;18.69;100.00;100954.13;5021508;28;20195;-73
2022/08/23 07:40:59;;;;;;;5.83;4.90;;;;;;;18.73;100.00;100960.09;5024898;28;20203;-73
2022/08/23 07:43:27;;;;;;;6.93;4.93;;;;;;;18.75;100.00;100950.31;5022309;28;20682;-74
2022/08/23 07:45:53;;;;;;;5.37;4.40;;;;;;;18.85;100.00;100950.69;5035101;28;20689;-73
2022/08/23 07:48:20;;;;;;;5.63;4.37;;;;;;;18.87;100.00;100947.03;5032818;28;20199;-73
2022/08/23 07:51:11;;;;;;;5.43;4.27;;;;;;;18.94;100.00;100941.38;5020386;28;20714;-73
2022/08/23 07:53:38;;;;;;;9.63;4.53;;;;;;;18.97;100.00;100950.00;5023793;28;20219;-73
2022/08/23 07:56:08;;;;;;;6.17;4.60;;;;;;;19.00;100.00;100949.00;5019265;28;20281;-71
2022/08/23 07:58:55;;;;;;;4.13;3.73;;;;;;;19.09;100.00;100949.31;5050160;28;20215;-71
2022/08/23 08:01:51;;;;;;;4.80;3.43;;;;;;;19.11;100.00;100962.44;5028435;28;20570;-72
2022/08/23 08:04:18;;;;;;;4.57;3.87;;;;;;;19.10;100.00;100950.16;5026410;28;20330;-73
2022/08/23 08:06:49;;;;;;;4.40;3.97;;;;;;;19.20;100.00;100953.97;5031807;28;20200;-72
2022/08/23 08:09:19;;;;;;;5.03;4.20;;;;;;;19.21;100.00;100954.84;5027442;28;20203;-71
2022/08/23 08:11:51;;;;;;;7.20;4.30;;;;;;;19.37;100.00;100952.19;5029032;28;20299;-73
2022/08/23 08:14:21;;;;;;;4.87;3.80;;;;;;;19.38;100.00;100949.41;5051890;28;20574;-72
2022/08/23 08:16:55;;;;;;;5.67;4.27;;;;;;;19.39;100.00;100963.50;5024933;28;20546;-72
2022/08/23 08:19:37;;;;;;;4.73;3.30;;;;;;;19.42;100.00;100961.53;5038842;28;20543;-72
2022/08/23 08:22:07;;;;;;;4.20;3.80;;;;;;;19.39;100.00;100958.22;5037622;28;20878;-72
2022/08/23 08:25:11;;;;;;;5.23;3.80;;;;;;;19.58;100.00;100965.94;5040945;28;20207;-72
2022/08/23 08:27:40;;;;;;;5.73;3.90;;;;;;;19.67;100.00;100963.59;5043888;28;20210;-72
2022/08/23 08:30:10;;;;;;;4.50;3.50;;;;;;;19.68;100.00;100964.44;5025788;28;20210;-72
2022/08/23 08:32:38;;;;;;;4.67;3.60;;;;;;;19.65;100.00;100967.28;5029160;28;20199;-73
2022/08/23 08:35:07;;;;;;;3.30;3.00;;;;;;;19.61;100.00;100971.03;5025635;28;20203;-70
2022/08/23 08:37:35;;;;;;;3.77;3.30;;;;;;;19.59;100.00;100968.47;5027228;28;20210;-70
2022/08/23 08:40:02;;;;;;;3.57;3.27;;;;;;;19.63;100.00;100971.78;5031046;28;20196;-72
2022/08/23 08:42:53;;;;;;;4.47;3.10;;;;;;;19.64;100.00;100969.06;5051006;28;20206;-69
2022/08/23 08:45:24;;;;;;;4.27;3.17;;;;;;;19.80;100.00;100966.38;5047115;28;20200;-72
2022/08/23 08:47:56;;;;;;;4.50;3.60;;;;;;;19.74;100.00;100977.34;5041444;28;20209;-72
2022/08/23 08:50:31;;;;;;;3.80;3.13;;;;;;;19.82;100.00;100968.94;5014912;28;20207;-72
2022/08/23 08:53:04;;;;;;;3.20;2.90;;;;;;;19.83;100.00;100968.00;5022887;28;20219;-71
2022/08/23 08:55:50;;;;;;;5.57;3.00;;;;;;;19.89;100.00;100967.63;5022322;28;20203;-71
2022/08/23 08:58:22;;;;;;;3.60;2.83;;;;;;;19.99;100.00;100963.50;5054915;28;20214;-72
2022/08/23 09:00:50;;;;;;;3.27;2.80;;;;;;;19.92;100.00;100966.59;5029266;28;20226;-69
2022/08/23 09:03:20;;;;;;;3.57;3.23;;;;;;;19.88;100.00;100962.47;5048133;28;20219;-72
2022/08/23 09:05:52;;;;;;;3.33;2.83;;;;;;;19.93;100.00;100969.16;5018534;28;20204;-71
2022/08/23 09:08:35;;;;;;;4.43;3.00;;;;;;;19.91;100.00;100967.53;5028682;28;20199;-72
2022/08/23 09:11:10;;;;;;;2.93;2.70;;;;;;;20.04;100.00;100965.88;5025012;28;20674;-71
2022/08/23 09:13:56;;;;;;;3.53;3.23;;;;;;;20.09;100.00;100966.44;5020862;28;20228;-70
2022/08/23 09:16:38;;;;;;;5.17;2.93;;;;;;;20.23;100.00;100966.44;5028582;28;20297;-72
2022/08/23 09:19:05;;;;;;;4.10;3.10;;;;;;;20.32;100.00;100972.97;5025184;28;20214;-70
2022/08/23 09:21:41;;;;;;;3.00;2.70;;;;;;;20.26;100.00;100975.97;5030669;28;20199;-70
2022/08/23 09:24:08;;;;;;;3.77;3.07;;;;;;;20.23;100.00;100970.91;5044688;28;20234;-70
2022/08/23 09:26:50;;;;;;;2.87;2.67;;;;;;;20.25;100.00;100974.31;5025238;28;20212;-70
2022/08/23 09:29:23;;;;;;;3.53;2.83;;;;;;;20.20;100.00;100971.09;5042961;28;20226;-70
2022/08/23 09:31:54;;;;;;;3.83;3.10;;;;;;;20.16;100.00;100978.34;5047523;28;20286;-70
2022/08/23 09:34:40;;;;;;;5.20;3.17;;;;;;;20.13;100.00;100972.41;5028118;28;20794;-70
2022/08/23 09:37:18;;;;;;;6.87;3.53;;;;;;;20.13;100.00;100965.31;5027727;28;20695;-70
2022/08/23 09:39:48;;;;;;;4.13;3.28;;;;;;;19.97;100.00;100973.31;5035051;28;20262;-70
2022/08/23 09:42:28;;;;;;;5.10;3.17;;;;;;;20.07;100.00;100975.41;5027771;28;20203;-69
2022/08/23 09:44:56;;;;;;;3.87;3.40;;;;;;;20.18;100.00;100971.16;5038410;28;20878;-70
2022/08/23 09:47:31;;;;;;;4.37;3.93;;;;;;;20.22;100.00;100977.97;5028800;28;20210;-70
2022/08/23 09:50:08;;;;;;;4.73;3.63;;;;;;;20.20;100.00;100981.66;5042762;28;20209;-70
2022/08/23 09:52:37;;;;;;;4.75;3.60;;;;;;;20.24;100.00;100984.06;5021178;28;20661;-70
2022/08/23 09:55:09;;;;;;;5.25;2.95;;;;;;;20.24;100.00;100976.09;5018412;28;20217;-71
2022/08/23 09:57:48;;;;;;;4.20;3.80;;;;;;;20.29;100.00;100981.09;5028688;28;20204;-70
2022/08/23 10:00:22;;;;;;;3.73;3.27;;;;;;;20.21;100.00;100980.72;5028217;28;20257;-70
2022/08/23 10:02:56;;;;;;;3.83;3.30;;;;;;;20.28;100.00;100984.72;5043171;28;20214;-70
2022/08/23 10:05:35;;;;;;;3.92;3.40;;;;;;;20.35;100.00;100986.03;5039623;28;20199;-70
2022/08/23 10:08:03;;;;;;;3.40;3.10;;;;;;;20.43;100.00;100978.44;5045482;28;20217;-70
2022/08/23 10:10:37;;;;;;;3.30;3.00;;;;;;;20.48;100.00;100982.63;5024775;28;20538;-72
2022/08/23 10:13:06;;;;;;;7.43;3.92;;;;;;;20.52;100.00;100982.31;5023044;28;20247;-70
2022/08/23 10:15:53;;;;;;;4.60;3.65;;;;;;;20.47;100.00;100987.06;5020053;28;20306;-71
2022/08/23 10:18:33;;;;;;;5.68;3.20;;;;;;;20.50;100.00;100988.69;5018308;28;20211;-70
2022/08/23 10:21:04;;;;;;;4.20;3.10;;;;;;;20.49;100.00;100985.19;5047286;28;20911;-70
2022/08/23 10:23:56;;;;;;;3.65;3.30;;;;;;;20.61;100.00;100979.16;5041466;28;20637;-70
2022/08/23 10:26:29;;;;;;;8.60;3.50;;;;;;;20.63;100.00;100991.44;5042963;28;20648;-70
2022/08/23 10:31:58;;;;;;;5.63;3.83;;;;;;;20.70;100.00;100987.44;5024653;28;20627;-70
2022/08/23 10:34:46;;;;;;;4.60;3.22;;;;;;;20.73;100.00;100992.56;5028226;28;20250;-70
2022/08/23 10:37:30;;;;;;;3.08;2.78;;;;;;;20.66;100.00;100988.59;5043270;28;20309;-71
2022/08/23 10:40:01;;;;;;;3.55;3.15;;;;;;;20.68;100.00;100992.00;5041201;28;20579;-71
2022/08/23 10:42:40;;;;;;;3.40;3.10;;;;;;;20.82;100.00;100988.47;5043675;28;20676;-70
2022/08/23 10:45:21;;;;;;;3.33;2.97;;;;;;;20.88;100.00;100991.59;5046835;28;20202;-70
2022/08/23 10:47:59;;;;;;;4.35;3.30;;;;;;;20.91;100.00;100987.88;5028243;28;20200;-70
2022/08/23 10:50:42;;;;;;;3.35;3.00;;;;;;;21.02;100.00;100987.19;5043669;28;20955;-71
2022/08/23 10:53:15;;;;;;;3.40;2.97;;;;;;;21.11;100.00;100986.63;5053781;28;20237;-70
2022/08/23 10:56:01;;;;;;;3.50;2.95;;;;;;;21.18;100.00;100994.06;5042056;28;20229;-70
2022/08/23 10:58:34;;;;;;;3.70;3.03;;;;;;;21.27;100.00;100987.31;5025748;28;20804;-70
2022/08/23 11:01:01;;;;;;;3.30;3.00;;;;;;;21.44;100.00;100991.53;5048430;28;20207;-70
2022/08/23 11:03:30;;;;;;;3.53;2.95;;;;;;;21.62;100.00;100999.22;5045168;28;20215;-70
2022/08/23 11:06:50;;;;;;;4.90;3.17;;;;;;;21.72;100.00;100995.00;5044988;28;20231;-70
2022/08/23 11:09:46;;;;;;;3.13;2.78;;;;;;;21.61;100.00;100992.22;4971603;28;20365;-71
2022/08/23 11:12:24;;;;;;;4.70;2.75;;;;;;;21.47;100.00;100996.63;4971504;28;20216;-70
2022/08/23 11:15:04;;;;;;;4.55;3.05;;;;;;;21.38;100.00;100992.75;5018154;28;20236;-71
2022/08/23 11:17:40;;;;;;;2.88;2.50;;;;;;;21.27;100.00;100992.63;5031496;28;20692;-70
2022/08/23 11:20:09;;;;;;;3.92;2.83;;;;;;;21.11;100.00;100992.78;5029495;28;20225;-70
2022/08/23 11:23:21;;;;;;;2.75;2.47;;;;;;;21.09;100.00;100994.69;5031669;28;20200;-70
2022/08/23 11:25:49;;;;;;;3.63;2.40;;;;;;;20.99;100.00;101001.50;4949132;28;20237;-70
2022/08/23 11:28:40;;;;;;;2.75;2.50;;;;;;;21.06;100.00;100997.50;5013517;28;20218;-70
2022/08/23 11:31:22;;;;;;;2.83;2.60;;;;;;;21.04;100.00;100994.13;5048503;28;20819;-70
2022/08/23 11:33:52;;;;;;;3.47;2.70;;;;;;;21.04;100.00;101002.06;5029770;28;20761;-70
2022/08/23 11:36:22;;;;;;;4.60;2.47;;;;;;;21.07;100.00;100998.34;5022420;28;20200;-70
2022/08/23 11:39:09;;;;;;;3.25;2.40;;;;;;;21.19;100.00;101000.22;5025775;28;20476;-70
2022/08/23 11:42:02;;;;;;;3.60;2.63;;;;;;;21.24;100.00;100999.94;5031014;28;20207;-71
2022/08/23 11:44:40;;;;;;;3.85;3.00;;;;;;;21.22;100.00;101001.84;5044713;28;20628;-72
2022/08/23 11:47:11;;;;;;;3.33;2.45;;;;;;;21.27;100.00;100997.09;5046844;28;20260;-70